createdAt,value
2016-11-01T00:00:23.839Z,83.81
2016-11-01T00:01:23.790Z,83.85
2016-11-01T00:02:23.808Z,83.52
2016-11-01T00:03:23.762Z,83.9
2016-11-01T00:04:23.770Z,83.18
2016-11-01T00:05:23.737Z,83.24
2016-11-01T00:06:23.754Z,83.24
2016-11-01T00:07:23.738Z,83.33
2016-11-01T00:08:23.930Z,83.05
2016-11-01T00:09:23.900Z,83.24
2016-11-01T00:10:23.697Z,83.05
2016-11-01T00:11:23.654Z,83.14
2016-11-01T00:12:23.659Z,83.9
2016-11-01T00:13:23.633Z,83.62
2016-11-01T00:14:23.610Z,83.71
2016-11-01T00:15:23.607Z,83.71
2016-11-01T00:16:23.593Z,83.62
2016-11-01T00:17:23.600Z,83.71
2016-11-01T00:18:23.596Z,83.52
2016-11-01T00:19:23.573Z,83.81
2016-11-01T00:20:23.546Z,83.71
2016-11-01T00:21:23.534Z,83.71
2016-11-01T00:22:23.521Z,83.81
2016-11-01T00:23:23.484Z,83.81
2016-11-01T00:24:23.492Z,83.71
2016-11-01T00:25:23.477Z,83.71
2016-11-01T00:26:23.443Z,83.52
2016-11-01T00:27:23.440Z,83.71
2016-11-01T00:28:23.435Z,83.43
2016-11-01T00:29:23.414Z,83.71
2016-11-01T00:30:23.417Z,83.62
2016-11-01T00:31:23.403Z,83.43
2016-11-01T00:32:23.378Z,83.43
2016-11-01T00:33:23.379Z,83.52
2016-11-01T00:34:23.361Z,83.52
2016-11-01T00:35:23.323Z,83.52
2016-11-01T00:36:23.523Z,83.71
2016-11-01T00:37:23.317Z,83.71
2016-11-01T00:38:23.494Z,83.62
2016-11-01T00:39:23.278Z,83.71
2016-11-01T00:40:23.276Z,83.71
2016-11-01T00:41:23.240Z,83.71
2016-11-01T00:42:23.227Z,83.43
2016-11-01T00:43:23.221Z,83.62
2016-11-01T00:44:23.196Z,84
2016-11-01T00:45:23.200Z,84.09
2016-11-01T00:46:23.177Z,84.13
2016-11-01T00:47:23.173Z,84.04
2016-11-01T00:48:23.149Z,83.94
2016-11-01T00:49:23.132Z,84.04
2016-11-01T00:50:23.120Z,84.13
2016-11-01T00:51:23.083Z,84.04
2016-11-01T00:52:23.078Z,84.04
2016-11-01T00:53:23.068Z,83.94
2016-11-01T00:54:23.072Z,84.09
2016-11-01T00:55:23.338Z,84
2016-11-01T00:56:23.032Z,84.09
2016-11-01T00:57:22.995Z,83.62
2016-11-01T00:58:23.008Z,83.9
2016-11-01T00:59:22.966Z,83.9
2016-11-01T01:00:22.975Z,84
2016-11-01T01:01:22.961Z,83.9
2016-11-01T01:02:22.926Z,84.09
2016-11-01T01:03:22.942Z,83.9
2016-11-01T01:04:22.928Z,84.09
2016-11-01T01:05:22.904Z,83.9
2016-11-01T01:06:22.868Z,83.9
2016-11-01T01:07:22.852Z,83.9
2016-11-01T01:08:22.839Z,83.9
2016-11-01T01:09:22.824Z,83.71
2016-11-01T01:10:22.829Z,83.81
2016-11-01T01:11:22.807Z,83.81
2016-11-01T01:12:22.814Z,83.81
2016-11-01T01:13:22.799Z,83.71
2016-11-01T01:14:22.763Z,83.71
2016-11-01T01:15:22.738Z,83.9
2016-11-01T01:16:22.725Z,83.9
2016-11-01T01:17:22.720Z,84
2016-11-01T01:18:22.896Z,84
2016-11-01T01:19:22.694Z,83.9
2016-11-01T01:20:22.665Z,83.9
2016-11-01T01:21:22.672Z,84
2016-11-01T01:22:22.659Z,83.9
2016-11-01T01:23:22.632Z,84.09
2016-11-01T01:24:22.640Z,84
2016-11-01T01:25:22.591Z,83.9
2016-11-01T01:26:22.589Z,84
2016-11-01T01:27:22.599Z,84.28
2016-11-01T01:28:22.570Z,84.28
2016-11-01T01:29:22.544Z,84.38
2016-11-01T01:30:22.540Z,83.9
2016-11-01T01:31:22.527Z,83.9
2016-11-01T01:32:22.499Z,84.28
2016-11-01T01:33:22.476Z,84.19
2016-11-01T01:34:22.493Z,83.81
2016-11-01T01:35:22.468Z,84.09
2016-11-01T01:36:22.443Z,84
2016-11-01T01:37:22.418Z,84.19
2016-11-01T01:38:22.414Z,84.47
2016-11-01T01:39:22.399Z,84.09
2016-11-01T01:40:22.373Z,84.19
2016-11-01T01:41:22.359Z,84.28
2016-11-01T01:42:22.355Z,84.28
2016-11-01T01:43:22.359Z,84.38
2016-11-01T01:44:22.348Z,84.47
2016-11-01T01:45:22.322Z,84.28
2016-11-01T01:46:22.296Z,84.19
2016-11-01T01:47:22.272Z,84.47
2016-11-01T01:48:22.269Z,84.47
2016-11-01T01:49:22.266Z,84.47
2016-11-01T01:50:22.246Z,84.56
2016-11-01T01:51:22.222Z,84.38
2016-11-01T01:52:22.212Z,84.47
2016-11-01T01:53:22.217Z,84.47
2016-11-01T01:54:22.179Z,84.66
2016-11-01T01:55:22.153Z,84.38
2016-11-01T01:56:22.172Z,84.75
2016-11-01T01:57:22.157Z,84.56
2016-11-01T01:58:22.151Z,84.66
2016-11-01T01:59:22.119Z,84.66
2016-11-01T02:00:22.116Z,84.66
2016-11-01T02:01:22.073Z,84.75
2016-11-01T02:02:22.084Z,84.66
2016-11-01T02:03:22.071Z,84.47
2016-11-01T02:04:22.033Z,84.75
2016-11-01T02:05:22.019Z,84.38
2016-11-01T02:06:22.024Z,84.56
2016-11-01T02:07:22.001Z,84.56
2016-11-01T02:08:21.986Z,84.56
2016-11-01T02:09:21.960Z,84.56
2016-11-01T02:10:21.935Z,84.75
2016-11-01T02:11:21.932Z,84.56
2016-11-01T02:12:21.904Z,84.75
2016-11-01T02:13:21.924Z,84.66
2016-11-01T02:14:21.909Z,84.66
2016-11-01T02:15:21.896Z,84.56
2016-11-01T02:16:21.872Z,84.75
2016-11-01T02:17:21.856Z,84.56
2016-11-01T02:18:21.851Z,84.66
2016-11-01T02:19:21.815Z,84.75
2016-11-01T02:20:21.822Z,84.66
2016-11-01T02:21:21.800Z,84.85
2016-11-01T02:22:21.796Z,84.56
2016-11-01T02:23:21.746Z,84.75
2016-11-01T02:24:21.735Z,84.66
2016-11-01T02:25:21.716Z,84.75
2016-11-01T02:26:21.705Z,84.56
2016-11-01T02:27:21.686Z,84.66
2016-11-01T02:28:21.686Z,84.56
2016-11-01T02:29:21.691Z,84.66
2016-11-01T02:30:21.643Z,84.75
2016-11-01T02:31:21.661Z,84.66
2016-11-01T02:32:21.926Z,84.94
2016-11-01T02:33:21.621Z,84.56
2016-11-01T02:34:21.608Z,85.04
2016-11-01T02:35:21.593Z,84.75
2016-11-01T02:36:21.588Z,85.04
2016-11-01T02:37:21.541Z,85.13
2016-11-01T02:38:21.540Z,84.94
2016-11-01T02:39:21.520Z,85.23
2016-11-01T02:40:21.518Z,84.85
2016-11-01T02:41:21.504Z,85.13
2016-11-01T02:42:21.489Z,84.94
2016-11-01T02:43:21.486Z,84.94
2016-11-01T02:44:21.472Z,85.13
2016-11-01T02:45:21.436Z,85.13
2016-11-01T02:46:21.431Z,85.13
2016-11-01T02:47:21.416Z,85.04
2016-11-01T02:48:21.389Z,85.32
2016-11-01T02:49:21.375Z,85.32
2016-11-01T02:50:21.371Z,85.04
2016-11-01T02:51:21.335Z,85.32
2016-11-01T02:52:21.344Z,85.13
2016-11-01T02:53:21.335Z,85.23
2016-11-01T02:54:21.313Z,85.23
2016-11-01T02:55:21.288Z,85.13
2016-11-01T02:56:21.284Z,85.04
2016-11-01T02:57:21.258Z,84.85
2016-11-01T02:58:21.232Z,84.94
2016-11-01T02:59:21.233Z,85.13
2016-11-01T03:00:21.201Z,85.13
2016-11-01T03:01:21.189Z,84.85
2016-11-01T03:02:21.217Z,84.85
2016-11-01T03:03:21.158Z,84.94
2016-11-01T03:04:21.143Z,85.04
2016-11-01T03:05:21.150Z,85.13
2016-11-01T03:06:21.125Z,84.94
2016-11-01T03:07:21.132Z,85.04
2016-11-01T03:08:21.084Z,85.13
2016-11-01T03:09:21.083Z,85.04
2016-11-01T03:10:21.080Z,84.85
2016-11-01T03:11:21.050Z,85.13
2016-11-01T03:12:21.066Z,84.94
2016-11-01T03:13:21.045Z,84.94
2016-11-01T03:14:21.031Z,85.13
2016-11-01T03:15:21.019Z,85.23
2016-11-01T03:16:20.978Z,85.32
2016-11-01T03:17:20.974Z,85.04
2016-11-01T03:18:20.950Z,85.23
2016-11-01T03:19:20.956Z,85.04
2016-11-01T03:20:20.920Z,85.23
2016-11-01T03:21:20.904Z,85.23
2016-11-01T03:22:20.890Z,85.23
2016-11-01T03:23:20.873Z,85.13
2016-11-01T03:24:20.878Z,85.13
2016-11-01T03:25:20.845Z,85.04
2016-11-01T03:26:20.883Z,84.94
2016-11-01T03:27:20.820Z,84.94
2016-11-01T03:28:20.796Z,85.13
2016-11-01T03:29:20.809Z,84.94
2016-11-01T03:30:20.797Z,85.04
2016-11-01T03:31:20.781Z,84.75
2016-11-01T03:32:20.745Z,85.13
2016-11-01T03:33:20.719Z,85.04
2016-11-01T03:34:20.710Z,85.13
2016-11-01T03:35:20.720Z,85.13
2016-11-01T03:36:20.697Z,84.66
2016-11-01T03:37:20.671Z,84.94
2016-11-01T03:38:20.645Z,84.47
2016-11-01T03:39:20.631Z,84.56
2016-11-01T03:40:20.626Z,84.56
2016-11-01T03:41:20.601Z,84.75
2016-11-01T03:42:20.598Z,84.66
2016-11-01T03:43:20.918Z,84.66
2016-11-01T03:44:20.556Z,84.75
2016-11-01T03:45:20.565Z,84.85
2016-11-01T03:46:20.558Z,84.75
2016-11-01T03:47:20.548Z,84.66
2016-11-01T03:48:20.533Z,84.66
2016-11-01T03:49:20.498Z,84.66
2016-11-01T03:50:20.495Z,84.47
2016-11-01T03:51:20.478Z,84.19
2016-11-01T03:52:20.475Z,84.47
2016-11-01T03:53:20.458Z,84.09
2016-11-01T03:54:20.434Z,84.28
2016-11-01T03:55:20.418Z,84.38
2016-11-01T03:56:20.406Z,84.28
2016-11-01T03:57:20.401Z,84.38
2016-11-01T03:58:20.378Z,84.38
2016-11-01T03:59:20.339Z,84.28
2016-11-01T04:00:20.334Z,84.28
2016-11-01T04:01:20.345Z,84.19
2016-11-01T04:02:20.305Z,84
2016-11-01T04:03:20.315Z,84
2016-11-01T04:04:20.277Z,84.09
2016-11-01T04:05:20.285Z,84.19
2016-11-01T04:06:20.251Z,84.09
2016-11-01T04:07:20.234Z,84.47
2016-11-01T04:08:20.229Z,84.38
2016-11-01T04:09:20.215Z,84.38
2016-11-01T04:10:20.211Z,84
2016-11-01T04:11:20.186Z,84.09
2016-11-01T04:12:20.183Z,83.81
2016-11-01T04:13:20.157Z,83.9
2016-11-01T04:14:20.121Z,84
2016-11-01T04:15:20.118Z,83.9
2016-11-01T04:16:20.104Z,83.9
2016-11-01T04:17:20.079Z,84
2016-11-01T04:18:20.075Z,84
2016-11-01T04:19:20.060Z,83.62
2016-11-01T04:20:20.069Z,83.71
2016-11-01T04:21:20.055Z,83.71
2016-11-01T04:22:20.016Z,83.33
2016-11-01T04:23:20.013Z,83.52
2016-11-01T04:24:19.998Z,83.43
2016-11-01T04:25:19.962Z,83.52
2016-11-01T04:26:19.969Z,83.62
2016-11-01T04:27:19.962Z,83.71
2016-11-01T04:28:19.940Z,83.33
2016-11-01T04:29:19.929Z,83.14
2016-11-01T04:30:19.914Z,83.24
2016-11-01T04:31:19.881Z,83.24
2016-11-01T04:32:19.883Z,83.24
2016-11-01T04:33:19.857Z,83.33
2016-11-01T04:34:19.854Z,82.95
2016-11-01T04:35:19.830Z,82.95
2016-11-01T04:36:19.836Z,82.76
2016-11-01T04:37:19.802Z,83.05
2016-11-01T04:38:19.825Z,83.14
2016-11-01T04:39:19.794Z,82.57
2016-11-01T04:40:19.756Z,82.57
2016-11-01T04:41:19.735Z,82.48
2016-11-01T04:42:19.719Z,82.57
2016-11-01T04:43:19.714Z,82.67
2016-11-01T04:44:19.689Z,82.76
2016-11-01T04:45:19.711Z,82.67
2016-11-01T04:46:19.696Z,82.1
2016-11-01T04:47:19.680Z,82.2
2016-11-01T04:48:19.654Z,81.92
2016-11-01T04:49:19.623Z,81.92
2016-11-01T04:50:19.607Z,82.1
2016-11-01T04:51:19.624Z,82.1
2016-11-01T04:52:19.579Z,82.1
2016-11-01T04:53:19.584Z,81.92
2016-11-01T04:54:19.562Z,82.05
2016-11-01T04:55:19.556Z,81.86
2016-11-01T04:56:19.521Z,82.14
2016-11-01T04:57:19.538Z,82.2
2016-11-01T04:58:19.503Z,82.05
2016-11-01T04:59:19.481Z,81.72
2016-11-01T05:00:19.463Z,82.14
2016-11-01T05:01:19.459Z,81.86
2016-11-01T05:02:19.455Z,81.44
2016-11-01T05:03:19.474Z,81.76
2016-11-01T05:04:19.712Z,81.57
2016-11-01T05:05:19.436Z,81.72
2016-11-01T05:06:19.378Z,81.76
2016-11-01T05:07:19.399Z,81.38
2016-11-01T05:08:19.359Z,81.63
2016-11-01T05:09:19.367Z,81.67
2016-11-01T05:10:19.335Z,81.2
2016-11-01T05:11:19.340Z,81.86
2016-11-01T05:12:19.327Z,81.76
2016-11-01T05:13:19.303Z,81.57
2016-11-01T05:14:19.277Z,81.38
2016-11-01T05:15:19.283Z,81.29
2016-11-01T05:16:19.236Z,81.25
2016-11-01T05:17:19.233Z,81.15
2016-11-01T05:18:19.210Z,81.15
2016-11-01T05:19:19.195Z,81.25
2016-11-01T05:20:19.198Z,81.15
2016-11-01T05:21:19.187Z,81.06
2016-11-01T05:22:19.170Z,81.15
2016-11-01T05:23:19.136Z,81.25
2016-11-01T05:24:19.132Z,81.15
2016-11-01T05:25:19.128Z,80.96
2016-11-01T05:26:19.102Z,80.68
2016-11-01T05:27:19.080Z,80.77
2016-11-01T05:28:19.096Z,80.96
2016-11-01T05:29:19.071Z,80.4
2016-11-01T05:30:19.540Z,80.49
2016-11-01T05:31:19.032Z,80.68
2016-11-01T05:32:19.016Z,80.58
2016-11-01T05:33:18.994Z,80.58
2016-11-01T05:34:19.005Z,80.68
2016-11-01T05:35:18.990Z,80.68
2016-11-01T05:36:18.976Z,80.49
2016-11-01T05:37:18.952Z,80.58
2016-11-01T05:38:18.915Z,80.49
2016-11-01T05:39:18.901Z,80.49
2016-11-01T05:40:18.952Z,80.68
2016-11-01T05:41:18.902Z,80.21
2016-11-01T05:42:18.868Z,80.21
2016-11-01T05:43:18.877Z,80.68
2016-11-01T05:44:18.856Z,80.4
2016-11-01T05:45:18.822Z,80.21
2016-11-01T05:46:18.828Z,80.02
2016-11-01T05:47:18.783Z,80.02
2016-11-01T05:48:18.766Z,80.11
2016-11-01T05:49:18.762Z,79.83
2016-11-01T05:50:18.772Z,80.21
2016-11-01T05:51:18.745Z,80.4
2016-11-01T05:52:18.739Z,80.21
2016-11-01T05:53:18.712Z,80.11
2016-11-01T05:54:18.706Z,80.11
2016-11-01T05:55:18.682Z,79.93
2016-11-01T05:56:18.681Z,79.74
2016-11-01T05:57:18.633Z,79.64
2016-11-01T05:58:18.632Z,79.83
2016-11-01T05:59:18.633Z,79.64
2016-11-01T06:00:18.609Z,79.64
2016-11-01T06:01:18.572Z,79.55
2016-11-01T06:02:18.593Z,79.36
2016-11-01T06:03:18.560Z,79.36
2016-11-01T06:04:18.544Z,79.45
2016-11-01T06:05:18.532Z,79.36
2016-11-01T06:06:18.505Z,79.17
2016-11-01T06:07:18.512Z,79.36
2016-11-01T06:08:18.485Z,79.36
2016-11-01T06:09:18.483Z,79.45
2016-11-01T06:10:18.437Z,79.36
2016-11-01T06:11:18.428Z,79.45
2016-11-01T06:12:18.416Z,79.55
2016-11-01T06:13:18.410Z,78.79
2016-11-01T06:14:18.404Z,78.79
2016-11-01T06:15:18.370Z,78.79
2016-11-01T06:16:18.342Z,78.88
2016-11-01T06:17:18.329Z,78.88
2016-11-01T06:18:18.333Z,79.07
2016-11-01T06:19:18.307Z,78.79
2016-11-01T06:20:18.303Z,78.88
2016-11-01T06:21:18.300Z,78.83
2016-11-01T06:22:18.284Z,78.88
2016-11-01T06:23:18.236Z,78.64
2016-11-01T06:24:18.253Z,78.92
2016-11-01T06:25:18.227Z,78.73
2016-11-01T06:26:18.201Z,78.64
2016-11-01T06:27:18.176Z,78.45
2016-11-01T06:28:18.192Z,78.64
2016-11-01T06:29:18.184Z,78.73
2016-11-01T06:30:18.133Z,78.64
2016-11-01T06:31:18.130Z,78.26
2016-11-01T06:32:18.100Z,78.45
2016-11-01T06:33:18.100Z,78.26
2016-11-01T06:34:18.082Z,78.07
2016-11-01T06:35:18.054Z,78.35
2016-11-01T06:36:18.041Z,78.35
2016-11-01T06:37:18.062Z,78.35
2016-11-01T06:38:18.044Z,78.35
2016-11-01T06:39:18.029Z,78.35
2016-11-01T06:40:18.015Z,78.45
2016-11-01T06:41:17.967Z,78.45
2016-11-01T06:42:17.952Z,78.16
2016-11-01T06:43:18.281Z,78.26
2016-11-01T06:44:17.974Z,78.35
2016-11-01T06:45:17.930Z,78.26
2016-11-01T06:46:17.947Z,77.97
2016-11-01T06:47:17.926Z,78.45
2016-11-01T06:48:17.886Z,78.16
2016-11-01T06:49:17.972Z,78.07
2016-11-01T06:50:17.849Z,77.78
2016-11-01T06:51:17.832Z,77.69
2016-11-01T06:52:17.815Z,77.88
2016-11-01T06:53:17.792Z,77.78
2016-11-01T06:54:17.786Z,77.88
2016-11-01T06:55:17.797Z,77.88
2016-11-01T06:56:17.780Z,77.88
2016-11-01T06:57:17.745Z,77.97
2016-11-01T06:58:17.715Z,77.88
2016-11-01T06:59:17.735Z,77.97
2016-11-01T07:00:17.696Z,78.07
2016-11-01T07:01:17.685Z,77.78
2016-11-01T07:02:18.011Z,77.97
2016-11-01T07:03:17.664Z,77.59
2016-11-01T07:04:17.649Z,77.5
2016-11-01T07:05:17.613Z,77.59
2016-11-01T07:06:17.619Z,77.69
2016-11-01T07:07:17.609Z,77.69
2016-11-01T07:08:17.603Z,77.78
2016-11-01T07:09:17.579Z,77.59
2016-11-01T07:10:17.539Z,77.31
2016-11-01T07:11:17.551Z,77.69
2016-11-01T07:12:17.514Z,77.45
2016-11-01T07:13:17.500Z,77.45
2016-11-01T07:14:17.513Z,77.64
2016-11-01T07:15:17.501Z,77.25
2016-11-01T07:16:17.490Z,77.4
2016-11-01T07:17:17.472Z,77.31
2016-11-01T07:18:17.437Z,77.35
2016-11-01T07:19:17.424Z,77.35
2016-11-01T07:20:17.409Z,77.16
2016-11-01T07:21:17.415Z,77.06
2016-11-01T07:22:17.401Z,77.35
2016-11-01T07:23:17.376Z,77.45
2016-11-01T07:24:17.360Z,77.25
2016-11-01T07:25:17.351Z,77.06
2016-11-01T07:26:17.335Z,77.06
2016-11-01T07:27:17.297Z,76.97
2016-11-01T07:28:17.318Z,77.06
2016-11-01T07:29:17.281Z,77.16
2016-11-01T07:30:17.255Z,76.68
2016-11-01T07:31:17.261Z,76.87
2016-11-01T07:32:17.258Z,76.68
2016-11-01T07:33:17.216Z,76.78
2016-11-01T07:34:17.230Z,76.59
2016-11-01T07:35:17.194Z,76.97
2016-11-01T07:36:17.183Z,76.97
2016-11-01T07:37:17.188Z,76.65
2016-11-01T07:38:17.141Z,76.74
2016-11-01T07:39:17.139Z,76.65
2016-11-01T07:40:17.143Z,76.65
2016-11-01T07:41:17.133Z,76.65
2016-11-01T07:42:17.087Z,76.65
2016-11-01T07:43:17.093Z,76.74
2016-11-01T07:44:17.093Z,77.03
2016-11-01T07:45:17.054Z,76.65
2016-11-01T07:46:17.064Z,76.87
2016-11-01T07:47:17.050Z,76.65
2016-11-01T07:48:17.028Z,76.59
2016-11-01T07:49:17.024Z,76.68
2016-11-01T07:50:16.987Z,76.68
2016-11-01T07:51:16.971Z,76.87
2016-11-01T07:52:16.958Z,76.68
2016-11-01T07:53:16.934Z,76.87
2016-11-01T07:54:16.952Z,76.68
2016-11-01T07:55:16.924Z,76.78
2016-11-01T07:56:16.913Z,76.78
2016-11-01T07:57:16.911Z,76.87
2016-11-01T07:58:16.867Z,76.97
2016-11-01T07:59:16.875Z,76.68
2016-11-01T08:00:16.847Z,76.78
2016-11-01T08:01:16.821Z,76.87
2016-11-01T08:02:16.809Z,76.87
2016-11-01T08:03:16.819Z,76.68
2016-11-01T08:04:16.794Z,76.78
2016-11-01T08:05:16.801Z,76.68
2016-11-01T08:06:16.766Z,76.97
2016-11-01T08:07:16.763Z,76.87
2016-11-01T08:08:16.741Z,76.87
2016-11-01T08:09:16.724Z,76.78
2016-11-01T08:10:16.733Z,76.82
2016-11-01T08:11:16.690Z,76.73
2016-11-01T08:12:16.705Z,76.73
2016-11-01T08:13:16.683Z,77.01
2016-11-01T08:14:16.679Z,76.92
2016-11-01T08:15:16.656Z,77.2
2016-11-01T08:16:16.621Z,77.11
2016-11-01T08:17:16.631Z,76.73
2016-11-01T08:18:16.607Z,76.73
2016-11-01T08:19:16.584Z,77.01
2016-11-01T08:20:16.581Z,76.63
2016-11-01T08:21:16.578Z,76.54
2016-11-01T08:22:16.583Z,76.59
2016-11-01T08:23:16.538Z,76.87
2016-11-01T08:24:16.551Z,76.92
2016-11-01T08:25:16.513Z,76.92
2016-11-01T08:26:16.490Z,76.92
2016-11-01T08:27:16.510Z,76.73
2016-11-01T08:28:16.478Z,76.76
2016-11-01T08:29:16.482Z,76.76
2016-11-01T08:30:16.451Z,76.86
2016-11-01T08:31:16.436Z,77.14
2016-11-01T08:32:16.412Z,76.76
2016-11-01T08:33:16.420Z,77.05
2016-11-01T08:34:16.399Z,76.9
2016-11-01T08:35:16.377Z,76.93
2016-11-01T08:36:16.399Z,76.8
2016-11-01T08:37:16.382Z,76.76
2016-11-01T08:38:16.361Z,76.67
2016-11-01T08:39:16.325Z,76.63
2016-11-01T08:40:16.324Z,76.73
2016-11-01T08:41:16.652Z,77.14
2016-11-01T08:42:16.347Z,76.67
2016-11-01T08:43:16.279Z,76.76
2016-11-01T08:44:16.575Z,76.48
2016-11-01T08:45:16.273Z,76.44
2016-11-01T08:46:16.252Z,76.54
2016-11-01T08:47:16.227Z,76.63
2016-11-01T08:48:16.214Z,76.63
2016-11-01T08:49:16.205Z,76.73
2016-11-01T08:50:16.188Z,76.63
2016-11-01T08:51:16.177Z,76.73
2016-11-01T08:52:16.168Z,76.54
2016-11-01T08:53:16.182Z,76.44
2016-11-01T08:54:16.170Z,76.63
2016-11-01T08:55:16.193Z,76.54
2016-11-01T08:56:16.120Z,76.76
2016-11-01T08:57:16.096Z,76.57
2016-11-01T08:58:16.106Z,76.67
2016-11-01T08:59:16.398Z,76.67
2016-11-01T09:00:16.080Z,76.57
2016-11-01T09:01:16.081Z,76.76
2016-11-01T09:02:16.044Z,76.67
2016-11-01T09:03:16.019Z,76.67
2016-11-01T09:04:16.008Z,76.39
2016-11-01T09:05:16.332Z,76.34
2016-11-01T09:06:15.983Z,76.44
2016-11-01T09:07:15.970Z,76.63
2016-11-01T09:08:15.969Z,76.54
2016-11-01T09:09:15.955Z,76.25
2016-11-01T09:10:15.940Z,76.76
2016-11-01T09:11:15.944Z,76.2
2016-11-01T09:12:15.938Z,76.48
2016-11-01T09:13:15.894Z,76.63
2016-11-01T09:14:15.890Z,76.63
2016-11-01T09:15:15.937Z,76.76
2016-11-01T09:16:15.893Z,76.57
2016-11-01T09:17:15.843Z,77.09
2016-11-01T09:18:15.829Z,76.93
2016-11-01T09:19:15.849Z,77.03
2016-11-01T09:20:15.826Z,76.88
2016-11-01T09:21:15.824Z,76.88
2016-11-01T09:22:15.781Z,76.88
2016-11-01T09:23:15.772Z,76.97
2016-11-01T09:24:15.757Z,76.78
2016-11-01T09:25:15.759Z,76.59
2016-11-01T09:26:15.772Z,76.5
2016-11-01T09:27:15.756Z,76.93
2016-11-01T09:28:15.712Z,76.59
2016-11-01T09:29:15.731Z,76.59
2016-11-01T09:30:15.698Z,76.59
2016-11-01T09:31:15.698Z,76.31
2016-11-01T09:32:15.667Z,76.56
2016-11-01T09:33:15.688Z,76.56
2016-11-01T09:34:15.679Z,76.56
2016-11-01T09:35:15.646Z,76.56
2016-11-01T09:36:15.656Z,76.27
2016-11-01T09:37:15.613Z,76.27
2016-11-01T09:38:15.635Z,76.27
2016-11-01T09:39:15.589Z,76.27
2016-11-01T09:40:15.600Z,76.27
2016-11-01T09:41:15.568Z,76.65
2016-11-01T09:42:15.587Z,76.4
2016-11-01T09:43:15.556Z,76.5
2016-11-01T09:44:15.569Z,76.56
2016-11-01T09:45:15.555Z,76.56
2016-11-01T09:46:15.573Z,76.65
2016-11-01T09:47:15.532Z,76.27
2016-11-01T09:48:15.523Z,76.4
2016-11-01T09:49:15.479Z,76.31
2016-11-01T09:50:15.479Z,76.59
2016-11-01T09:51:15.455Z,76.59
2016-11-01T09:52:15.480Z,76.46
2016-11-01T09:53:15.454Z,76.59
2016-11-01T09:54:15.457Z,76.31
2016-11-01T09:55:15.413Z,76.37
2016-11-01T09:56:15.402Z,76.59
2016-11-01T09:57:15.415Z,76.59
2016-11-01T09:58:15.379Z,76.5
2016-11-01T09:59:15.381Z,76.25
2016-11-01T10:00:15.390Z,76.82
2016-11-01T10:01:15.371Z,76.2
2016-11-01T10:02:15.357Z,76.25
2016-11-01T10:03:15.337Z,76.25
2016-11-01T10:04:15.336Z,76.25
2016-11-01T10:05:15.327Z,76.25
2016-11-01T10:06:15.600Z,76.25
2016-11-01T10:07:15.294Z,76.2
2016-11-01T10:08:15.298Z,75.87
2016-11-01T10:09:15.284Z,75.87
2016-11-01T10:10:15.281Z,76.03
2016-11-01T10:11:15.251Z,76.21
2016-11-01T10:12:15.263Z,75.84
2016-11-01T10:13:15.254Z,76.03
2016-11-01T10:14:15.243Z,76.12
2016-11-01T10:15:15.265Z,75.78
2016-11-01T10:16:15.228Z,75.93
2016-11-01T10:17:15.200Z,76.03
2016-11-01T10:18:15.178Z,76.06
2016-11-01T10:19:15.156Z,76.06
2016-11-01T10:20:15.180Z,75.96
2016-11-01T10:21:15.158Z,75.49
2016-11-01T10:22:15.157Z,75.59
2016-11-01T10:23:15.115Z,75.68
2016-11-01T10:24:15.136Z,75.55
2016-11-01T10:25:15.090Z,75.68
2016-11-01T10:26:15.093Z,75.59
2016-11-01T10:27:15.107Z,75.59
2016-11-01T10:28:15.060Z,75.72
2016-11-01T10:29:15.073Z,75.3
2016-11-01T10:30:15.051Z,75.93
2016-11-01T10:31:15.062Z,75.21
2016-11-01T10:32:15.039Z,76.03
2016-11-01T10:33:15.049Z,75.68
2016-11-01T10:34:14.998Z,75.55
2016-11-01T10:35:14.996Z,75.74
2016-11-01T10:36:14.986Z,75.64
2016-11-01T10:37:14.967Z,75.74
2016-11-01T10:38:14.952Z,75.74
2016-11-01T10:39:14.952Z,75.87
2016-11-01T10:40:14.931Z,75.68
2016-11-01T10:41:14.935Z,74.98
2016-11-01T10:42:14.921Z,75.32
2016-11-01T10:43:14.935Z,75.13
2016-11-01T10:44:14.892Z,75.55
2016-11-01T10:45:14.878Z,75.55
2016-11-01T10:46:14.883Z,75.4
2016-11-01T10:47:14.888Z,75.07
2016-11-01T10:48:14.878Z,75.42
2016-11-01T10:49:14.869Z,75.26
2016-11-01T10:50:14.824Z,75.26
2016-11-01T10:51:14.823Z,75.36
2016-11-01T10:52:14.835Z,75.07
2016-11-01T10:53:14.801Z,75.11
2016-11-01T10:54:14.803Z,75.4
2016-11-01T10:55:14.791Z,75.59
2016-11-01T10:56:14.781Z,75.62
2016-11-01T10:57:14.751Z,75.15
2016-11-01T10:58:14.759Z,75.07
2016-11-01T10:59:14.938Z,75.26
2016-11-01T11:00:14.719Z,75.21
2016-11-01T11:01:14.730Z,74.92
2016-11-01T11:02:14.729Z,75.07
2016-11-01T11:03:14.696Z,75.04
2016-11-01T11:04:14.673Z,74.85
2016-11-01T11:05:14.674Z,75.04
2016-11-01T11:06:14.664Z,74.52
2016-11-01T11:07:14.653Z,74.62
2016-11-01T11:08:14.642Z,74.71
2016-11-01T11:09:14.644Z,74.85
2016-11-01T11:10:14.645Z,75.04
2016-11-01T11:11:14.619Z,74.98
2016-11-01T11:12:14.598Z,75.11
2016-11-01T11:13:14.586Z,75.11
2016-11-01T11:14:14.595Z,75.17
2016-11-01T11:15:14.587Z,75.07
2016-11-01T11:16:14.575Z,75.13
2016-11-01T11:17:14.577Z,75.04
2016-11-01T11:18:14.530Z,74.66
2016-11-01T11:19:14.513Z,74.98
2016-11-01T11:20:14.499Z,75.02
2016-11-01T11:21:14.509Z,74.51
2016-11-01T11:22:14.497Z,74.47
2016-11-01T11:23:14.487Z,75.04
2016-11-01T11:24:14.466Z,74.41
2016-11-01T11:25:14.463Z,74.94
2016-11-01T11:26:14.433Z,74.98
2016-11-01T11:27:14.487Z,74.88
2016-11-01T11:28:14.443Z,74.82
2016-11-01T11:29:14.410Z,74.82
2016-11-01T11:30:14.412Z,74.35
2016-11-01T11:31:14.411Z,74.31
2016-11-01T11:32:14.383Z,74.69
2016-11-01T11:33:14.361Z,74.6
2016-11-01T11:34:14.368Z,74.54
2016-11-01T11:35:14.358Z,74.44
2016-11-01T11:36:14.368Z,74.16
2016-11-01T11:37:14.325Z,74.54
2016-11-01T11:38:14.315Z,74.31
2016-11-01T11:39:14.304Z,74.6
2016-11-01T11:40:14.303Z,75.11
2016-11-01T11:41:14.306Z,74.67
2016-11-01T11:42:14.273Z,74.67
2016-11-01T11:43:14.261Z,74.39
2016-11-01T11:44:14.244Z,74.54
2016-11-01T11:45:14.263Z,74.41
2016-11-01T11:46:14.217Z,74.31
2016-11-01T11:47:14.220Z,74.6
2016-11-01T11:48:14.229Z,74.54
2016-11-01T11:49:14.187Z,74.63
2016-11-01T11:50:14.185Z,74.44
2016-11-01T11:51:14.178Z,74.73
2016-11-01T11:52:14.165Z,74.41
2016-11-01T11:53:14.156Z,74.26
2016-11-01T11:54:14.144Z,74.63
2016-11-01T11:55:14.133Z,75.24
2016-11-01T11:56:14.144Z,74.43
2016-11-01T11:57:14.102Z,74.8
2016-11-01T11:58:14.130Z,74.67
2016-11-01T11:59:14.083Z,74.39
2016-11-01T12:00:14.092Z,74.48
2016-11-01T12:01:14.079Z,74.52
2016-11-01T12:02:14.065Z,74.71
2016-11-01T12:03:14.041Z,74.58
2016-11-01T12:04:14.041Z,74.58
2016-11-01T12:05:14.020Z,74.39
2016-11-01T12:06:14.031Z,74.31
2016-11-01T12:07:14.050Z,74.47
2016-11-01T12:08:14.021Z,74.41
2016-11-01T12:09:13.989Z,74.35
2016-11-01T12:10:13.965Z,74.82
2016-11-01T12:11:13.956Z,74.35
2016-11-01T12:12:13.969Z,74.44
2016-11-01T12:13:13.936Z,74.54
2016-11-01T12:14:13.939Z,74.39
2016-11-01T12:15:13.914Z,74.58
2016-11-01T12:16:13.927Z,73.97
2016-11-01T12:17:13.902Z,74.51
2016-11-01T12:18:13.916Z,74.18
2016-11-01T12:19:13.907Z,74.51
2016-11-01T12:20:13.898Z,74.69
2016-11-01T12:21:13.865Z,74.31
2016-11-01T12:22:13.866Z,74.31
2016-11-01T12:23:13.854Z,74.18
2016-11-01T12:24:13.855Z,74.47
2016-11-01T12:25:13.821Z,74.37
2016-11-01T12:26:13.806Z,74.27
2016-11-01T12:27:13.825Z,74.66
2016-11-01T12:28:13.801Z,74.51
2016-11-01T12:29:13.779Z,74.51
2016-11-01T12:30:13.790Z,74.51
2016-11-01T12:31:13.760Z,74.6
2016-11-01T12:32:13.770Z,74.56
2016-11-01T12:33:13.727Z,74.37
2016-11-01T12:34:13.717Z,74.47
2016-11-01T12:35:13.707Z,74.47
2016-11-01T12:36:13.755Z,74.47
2016-11-01T12:37:13.694Z,74.31
2016-11-01T12:38:13.673Z,74.63
2016-11-01T12:39:13.686Z,75.11
2016-11-01T12:40:13.662Z,74.48
2016-11-01T12:41:13.640Z,74.48
2016-11-01T12:42:13.663Z,74.48
2016-11-01T12:43:13.644Z,74.48
2016-11-01T12:44:13.635Z,74.58
2016-11-01T12:45:13.631Z,74.58
2016-11-01T12:46:13.602Z,74.54
2016-11-01T12:47:13.580Z,74.44
2016-11-01T12:48:13.569Z,74.73
2016-11-01T12:49:13.590Z,74.44
2016-11-01T12:50:13.569Z,74.39
2016-11-01T12:51:13.555Z,74.35
2016-11-01T12:52:13.550Z,74.39
2016-11-01T12:53:13.577Z,74.77
2016-11-01T12:54:13.530Z,74.58
2016-11-01T12:55:13.532Z,74.73